Terminal Aerodrome Forecast
Issued by NWS

Current Version | Previous Version | Graphics & Text | Print | Product List | Glossary On
Versions: 1 2 3 4 5 6 7 8 9 10 11 12 13 14 15 16 17 18 19 20 21 22 23 24 25 26 27 28 29 30 31 32
738
FTUS41 KRNK 130302 AAA
TAFLWB
TAF AMD
KLWB 130302Z 1303/1324 33010G20KT P6SM -SN BKN035
      TEMPO 1303/1305 2SM -SHSN OVC007
     FM130500 30014G28KT 6SM -SHSN BKN015
     FM130700 30012G24KT P6SM BKN045
     FM131000 30010G20KT P6SM SCT045
     FM132300 21006KT P6SM BKN040=

USA.gov is the U.S. government's official web portal to all federal, state and local government web resources and services.